Time;durP1;ratioP1;P1;durP2;ratioP2;P2;SDS_P1;SDS_P2;PMS_P1;PMS_P2;Temp;Humidity;BMP_temperature;BMP_pressure;BME280_temperature;BME280_humidity;BME280_pressure;Samples;Min_cycle;Max_cycle;Signal;HPM_P1;HPM_P2
2021/06/07 00:01:01;;;;;;;;;14.00;13.00;;;;;21.82;47.14;99044.69;6184251;28;126018;-65
2021/06/07 00:04:06;;;;;;;;;17.00;16.00;;;;;21.82;46.93;99055.69;6186982;28;126467;-65
2021/06/07 00:07:11;;;;;;;;;17.00;15.00;;;;;21.80;46.99;99055.13;6170832;28;124123;-65
2021/06/07 00:10:15;;;;;;;;;15.80;15.00;;;;;21.78;47.48;99060.13;6177314;28;126051;-65
2021/06/07 00:13:19;;;;;;;;;16.00;14.00;;;;;21.73;47.32;99055.50;6187885;28;124941;-65
2021/06/07 00:16:21;;;;;;;;;13.75;13.50;;;;;21.70;47.32;99053.31;6186266;28;126396;-65
2021/06/07 00:19:29;;;;;;;;;12.25;12.25;;;;;21.56;47.10;99046.88;6177256;28;126256;-65
2021/06/07 00:22:31;;;;;;;;;13.00;13.00;;;;;21.55;47.12;99048.78;6183218;28;124897;-65
2021/06/07 00:25:34;;;;;;;;;16.40;15.00;;;;;21.45;47.60;99045.38;6195175;28;125045;-64
2021/06/07 00:28:37;;;;;;;;;16.40;15.00;;;;;21.38;47.63;99047.59;6175635;28;126582;-64
2021/06/07 00:31:41;;;;;;;;;13.60;13.00;;;;;21.30;47.76;99050.97;6179920;28;126359;-64
2021/06/07 00:34:45;;;;;;;;;13.80;13.20;;;;;21.17;47.96;99049.69;6187963;28;126913;-64
2021/06/07 00:37:48;;;;;;;;;13.60;11.60;;;;;20.99;47.99;99029.25;6174277;28;126704;-64
2021/06/07 00:40:51;;;;;;;;;15.00;13.60;;;;;20.94;47.98;99032.03;6182225;28;125023;-64
2021/06/07 00:43:56;;;;;;;;;13.00;13.00;;;;;21.08;48.30;99054.94;6174976;28;124954;-64
2021/06/07 00:46:59;;;;;;;;;14.00;14.00;;;;;21.03;48.75;99049.50;6195524;28;125921;-64
2021/06/07 00:50:06;;;;;;;;;17.00;14.60;;;;;21.04;48.21;99050.31;6177352;28;124986;-64
2021/06/07 00:53:13;;;;;;;;;15.00;13.20;;;;;21.02;48.40;99052.53;6183326;28;124812;-64
2021/06/07 00:56:16;;;;;;;;;15.00;14.00;;;;;21.04;48.33;99050.31;6161698;28;124929;-64
2021/06/07 00:59:18;;;;;;;;;15.40;14.40;;;;;20.89;48.19;99034.00;6163521;28;124978;-64
2021/06/07 01:02:21;;;;;;;;;14.60;14.00;;;;;20.70;48.33;99014.69;6165638;28;127094;-64
2021/06/07 01:05:26;;;;;;;;;15.00;14.00;;;;;20.87;48.56;99045.22;6164972;28;125147;-64
2021/06/07 01:08:28;;;;;;;;;15.50;14.00;;;;;;;;6178229;28;126167;-64
2021/06/07 01:11:33;;;;;;;;;13.75;13.25;;;;;20.95;48.63;99052.88;6182562;28;126558;-64
2021/06/07 01:14:35;;;;;;;;;13.00;12.00;;;;;20.92;48.54;99049.84;6185878;28;126432;-64
2021/06/07 01:17:39;;;;;;;;;14.25;14.00;;;;;20.89;48.69;99043.03;6182096;28;125937;-64
2021/06/07 01:20:44;;;;;;;;;14.00;13.00;;;;;20.86;48.65;99046.38;6176615;28;125760;-64
2021/06/07 01:23:48;;;;;;;;;15.00;15.00;;;;;20.79;48.45;99040.38;6174031;28;124885;-64
2021/06/07 01:26:51;;;;;;;;;14.00;12.80;;;;;20.72;48.28;99043.41;6156043;28;124802;-64
2021/06/07 01:30:18;;;;;;;;;16.00;14.00;;;;;20.58;48.19;99030.63;6177163;28;96940;-64
2021/06/07 01:33:24;;;;;;;;;16.00;15.00;;;;;20.47;48.39;99032.63;6184663;28;124612;-64
2021/06/07 01:36:26;;;;;;;;;14.00;13.00;;;;;20.37;48.65;99040.91;6166914;28;124769;-64
2021/06/07 01:39:31;;;;;;;;;15.00;13.20;;;;;20.28;48.47;99026.13;6155335;28;125741;-64
2021/06/07 01:42:53;;;;;;;;;13.00;12.80;;;;;20.30;48.56;99027.50;6187072;28;96816;-64
2021/06/07 01:45:56;;;;;;;;;14.20;14.00;;;;;20.28;48.80;99028.88;6201992;28;124405;-64
2021/06/07 01:48:58;;;;;;;;;15.80;15.80;;;;;20.25;49.00;99034.88;6174153;28;124198;-64
2021/06/07 01:52:20;;;;;;;;;15.00;15.00;;;;;20.27;48.53;99035.44;6187863;28;96470;-64
2021/06/07 01:55:29;;;;;;;;;14.00;13.00;;;;;20.28;48.73;99031.59;6186871;28;125002;-64
2021/06/07 01:58:51;;;;;;;;;13.00;13.00;;;;;20.24;48.47;99027.78;6173406;28;97157;-64
2021/06/07 02:02:12;;;;;;;;;17.00;16.00;;;;;20.16;48.72;99033.84;6187835;28;97208;-64
2021/06/07 02:05:18;;;;;;;;;15.00;13.00;;;;;20.09;48.43;99033.31;6167514;28;124844;-64
2021/06/07 02:08:22;;;;;;;;;14.00;13.00;;;;;20.01;48.91;99025.69;6162908;28;126405;-64
2021/06/07 02:11:28;;;;;;;;;12.00;11.75;;;;;19.90;48.87;99025.72;6170061;28;125176;-64
2021/06/07 02:14:31;;;;;;;;;14.40;13.40;;;;;19.83;49.01;99014.28;6161611;28;124917;-64
2021/06/07 02:17:34;;;;;;;;;15.00;14.00;;;;;19.83;49.28;99017.00;6179235;28;126906;-64
2021/06/07 02:20:38;;;;;;;;;14.00;14.00;;;;;19.88;49.11;99021.66;6172377;28;124874;-64
2021/06/07 02:23:41;;;;;;;;;16.00;15.40;;;;;19.94;49.31;99020.50;6170694;28;124686;-64
2021/06/07 02:26:45;;;;;;;;;16.60;16.00;;;;;20.01;48.96;99023.78;6164301;28;126291;-64
2021/06/07 02:29:48;;;;;;;;;15.50;14.00;;;;;20.06;49.35;99029.22;6162279;28;126185;-64
2021/06/07 02:32:52;;;;;;;;;15.00;15.00;;;;;20.07;49.33;99016.38;6168952;28;126211;-64
2021/06/07 02:35:54;;;;;;;;;20.00;18.00;;;;;20.13;49.17;99029.75;6160993;28;125990;-64
2021/06/07 02:38:57;;;;;;;;;17.00;16.50;;;;;20.09;49.35;99025.91;6168349;28;124897;-64
2021/06/07 02:42:03;;;;;;;;;18.00;16.00;;;;;20.05;48.88;99019.38;6174851;28;125130;-64
2021/06/07 02:45:08;;;;;;;;;18.00;17.00;;;;;20.04;49.07;99011.44;6182600;28;125931;-64
2021/06/07 02:48:11;;;;;;;;;21.00;18.00;;;;;20.14;48.68;99031.38;6177446;28;124539;-64
2021/06/07 02:51:14;;;;;;;;;19.00;18.40;;;;;20.10;48.93;99033.03;6181862;28;123990;-64
2021/06/07 02:54:17;;;;;;;;;19.00;17.00;;;;;20.05;48.57;99034.97;6185687;28;126177;-64
2021/06/07 02:57:21;;;;;;;;;16.40;15.40;;;;;19.87;48.52;99025.47;6181507;28;125076;-64
2021/06/07 03:00:26;;;;;;;;;17.80;16.80;;;;;19.84;48.17;99026.03;6178912;28;126514;-64
2021/06/07 03:03:29;;;;;;;;;19.80;16.00;;;;;19.77;47.98;99042.75;6185782;28;124954;-64
2021/06/07 03:06:32;;;;;;;;;18.00;16.50;;;;;19.67;48.26;99034.56;6184777;28;126455;-64
2021/06/07 03:09:34;;;;;;;;;15.50;15.00;;;;;19.61;48.54;99030.19;6173061;28;127059;-64
2021/06/07 03:12:40;;;;;;;;;17.50;16.00;;;;;19.48;48.58;99021.75;6185606;28;124220;-64
2021/06/07 03:15:44;;;;;;;;;21.00;19.00;;;;;19.61;48.66;99043.88;6185231;28;124061;-64
2021/06/07 03:18:46;;;;;;;;;17.60;16.00;;;;;19.62;48.66;99048.25;6174422;28;124658;-64
2021/06/07 03:21:49;;;;;;;;;17.00;16.00;;;;;19.62;49.01;99050.97;6185195;28;125166;-64
2021/06/07 03:24:52;;;;;;;;;17.00;15.75;;;;;19.67;49.14;99053.69;6200326;28;126299;-64
2021/06/07 03:27:57;;;;;;;;;15.00;14.00;;;;;19.74;49.28;99046.00;6172793;28;125065;-64
2021/06/07 03:31:00;;;;;;;;;17.00;15.33;;;;;19.75;49.36;99044.91;6179694;28;124362;-64
2021/06/07 03:34:03;;;;;;;;;18.50;16.00;;;;;19.93;49.15;99057.19;6165153;28;125927;-64
2021/06/07 03:37:06;;;;;;;;;16.20;16.00;;;;;19.63;49.41;99003.38;6159595;28;125650;-64
2021/06/07 03:40:12;;;;;;;;;18.60;16.00;;;;;20.06;49.34;99047.56;6165762;28;126797;-64
2021/06/07 03:43:16;;;;;;;;;17.00;17.00;;;;;20.15;49.13;99048.63;6160837;28;124831;-64
2021/06/07 03:46:19;;;;;;;;;16.00;15.00;;;;;20.27;48.83;99055.44;6165008;28;125897;-64
2021/06/07 03:49:22;;;;;;;;;17.40;16.00;;;;;20.33;48.89;99050.75;6160285;28;125191;-64
2021/06/07 03:52:24;;;;;;;;;17.00;16.00;;;;;20.44;48.48;99054.25;6166841;28;124928;-64
2021/06/07 03:55:28;;;;;;;;;16.50;15.50;;;;;20.44;48.50;99055.09;6162869;28;125430;-64
2021/06/07 03:58:32;;;;;;;;;16.00;15.00;;;;;20.66;48.15;99065.66;6160866;28;126183;-64
2021/06/07 04:01:34;;;;;;;;;16.00;16.00;;;;;20.77;47.73;99063.69;6180277;28;126498;-64
2021/06/07 04:04:40;;;;;;;;;16.80;16.00;;;;;20.84;47.70;99058.69;6182979;28;126694;-64
2021/06/07 04:07:43;;;;;;;;;14.00;12.25;;;;;20.95;47.26;99060.28;6161158;28;124299;-64
2021/06/07 04:10:46;;;;;;;;;17.50;14.50;;;;;21.04;47.19;99053.88;6166425;28;126039;-64
2021/06/07 04:13:52;;;;;;;;;18.00;17.00;;;;;21.17;46.54;99064.22;6170404;28;126988;-64
2021/06/07 04:16:55;;;;;;;;;17.50;16.00;;;;;21.18;46.60;99052.16;6172246;28;126159;-64
2021/06/07 04:19:58;;;;;;;;;18.00;17.00;;;;;21.32;46.40;99066.03;6165133;28;124800;-64
2021/06/07 04:23:01;;;;;;;;;18.40;16.00;;;;;21.52;46.30;99082.31;6174164;28;125157;-64
2021/06/07 04:26:05;;;;;;;;;18.00;17.00;;;;;21.58;45.79;99083.91;6187027;28;127244;-64
2021/06/07 04:29:09;;;;;;;;;18.60;18.20;;;;;21.63;45.67;99088.53;6170898;28;125196;-64
2021/06/07 04:32:12;;;;;;;;;20.60;18.40;;;;;21.69;45.95;99079.16;6181785;28;126704;-64
2021/06/07 04:35:17;;;;;;;;;19.60;18.60;;;;;21.79;46.23;99075.47;6169369;28;123990;-64
2021/06/07 04:38:19;;;;;;;;;18.00;17.00;;;;;21.80;46.11;99071.59;6167628;28;123889;-64
2021/06/07 04:41:22;;;;;;;;;19.00;16.00;;;;;21.85;45.78;99066.06;6179645;28;124717;-64
2021/06/07 04:44:26;;;;;;;;;18.60;17.80;;;;;21.87;45.59;99070.16;6178284;28;126455;-64
2021/06/07 04:47:29;;;;;;;;;18.50;17.00;;;;;22.03;45.46;99071.69;6180487;28;123697;-64
2021/06/07 04:50:33;;;;;;;;;18.00;17.50;;;;;22.04;45.19;99056.81;6179073;28;126361;-64
2021/06/07 04:53:36;;;;;;;;;18.00;17.20;;;;;22.27;44.88;99074.41;6174375;28;126125;-64
2021/06/07 04:56:39;;;;;;;;;19.40;17.00;;;;;22.32;44.54;99073.53;6173950;28;124396;-64
2021/06/07 04:59:43;;;;;;;;;17.20;17.20;;;;;22.46;44.92;99086.25;6164412;28;125185;-64
2021/06/07 05:02:45;;;;;;;;;19.00;19.00;;;;;22.53;44.80;99087.81;6166925;28;126773;-64
2021/06/07 05:05:48;;;;;;;;;19.40;19.40;;;;;22.48;44.83;99083.19;6162128;28;124991;-64
2021/06/07 05:08:51;;;;;;;;;20.00;18.40;;;;;22.54;44.34;99089.44;6153427;28;127805;-64
2021/06/07 05:11:53;;;;;;;;;19.40;18.40;;;;;22.53;44.40;99083.13;6209608;28;124991;-64
2021/06/07 05:14:59;;;;;;;;;20.00;19.00;;;;;22.62;44.27;99086.88;6171485;28;124262;-64
2021/06/07 05:18:02;;;;;;;;;18.00;17.00;;;;;22.67;44.13;99086.81;6160780;28;126518;-64
2021/06/07 05:21:06;;;;;;;;;22.40;20.00;;;;;22.74;44.64;99091.94;6172892;28;126261;-64
2021/06/07 05:24:08;;;;;;;;;17.00;16.00;;;;;22.80;44.66;99094.34;6166449;28;124722;-64
2021/06/07 05:27:11;;;;;;;;;18.40;16.60;;;;;22.93;44.30;99097.44;6168919;28;123875;-63
2021/06/07 05:30:17;;;;;;;;;20.00;19.50;;;;;23.03;44.37;99098.13;6163244;28;125200;-63
2021/06/07 05:33:20;;;;;;;;;22.00;20.00;;;;;23.18;44.00;99099.81;6165016;28;124787;-63
2021/06/07 05:36:23;;;;;;;;;17.00;16.00;;;;;23.34;43.35;99109.47;6171534;28;125121;-63
2021/06/07 05:39:26;;;;;;;;;20.00;19.00;;;;;23.58;43.52;99101.13;6161765;28;126841;-63
2021/06/07 05:42:29;;;;;;;;;21.00;18.00;;;;;23.73;42.94;99107.19;6176990;28;124969;-63
2021/06/07 05:45:33;;;;;;;;;21.00;19.00;;;;;23.80;42.68;99084.75;6164585;28;124608;-63
2021/06/07 05:48:36;;;;;;;;;20.40;19.40;;;;;24.05;42.48;99098.03;6162843;28;125981;-63
2021/06/07 05:51:39;;;;;;;;;19.50;19.00;;;;;23.97;42.26;99073.97;6174193;28;126302;-63
2021/06/07 05:54:42;;;;;;;;;21.40;20.00;;;;;24.13;42.16;99102.03;6169991;28;125011;-65
2021/06/07 05:57:47;;;;;;;;;18.50;18.50;;;;;24.17;41.62;99094.81;6179711;28;124969;-64
2021/06/07 06:00:52;;;;;;;;;21.00;19.00;;;;;24.30;41.59;99106.97;6172807;28;126371;-64
2021/06/07 06:03:55;;;;;;;;;18.00;17.00;;;;;24.37;41.15;99112.91;6177555;28;126188;-65
2021/06/07 06:06:58;;;;;;;;;19.00;18.00;;;;;24.45;40.85;99112.16;6183580;28;125102;-65
2021/06/07 06:10:01;;;;;;;;;18.40;17.40;;;;;24.50;40.77;99110.13;6155659;28;124565;-64
2021/06/07 06:13:04;;;;;;;;;16.50;15.50;;;;;24.67;40.40;99112.25;6178657;28;126658;-65
2021/06/07 06:16:08;;;;;;;;;17.40;16.00;;;;;24.77;40.63;99117.56;6169850;28;124164;-64
2021/06/07 06:19:12;;;;;;;;;17.00;17.00;;;;;24.94;39.71;99117.75;6164069;28;124308;-63
2021/06/07 06:22:14;;;;;;;;;21.80;20.00;;;;;25.08;40.22;99119.63;6167261;28;125175;-64
2021/06/07 06:25:20;;;;;;;;;20.50;19.00;;;;;25.15;39.73;99126.38;6175307;28;125135;-65
2021/06/07 06:28:22;;;;;;;;;18.40;16.40;;;;;25.33;38.53;99130.09;6165832;28;125152;-65
2021/06/07 06:31:27;;;;;;;;;22.60;19.40;;;;;25.42;38.61;99123.50;6166974;28;127138;-65
2021/06/07 06:34:35;;;;;;;;;19.00;17.40;;;;;25.49;38.90;99122.25;6174106;28;125362;-64
2021/06/07 06:37:44;;;;;;;;;17.00;17.00;;;;;25.63;38.19;99123.84;6175657;28;128069;-64
2021/06/07 06:40:48;;;;;;;;;18.00;18.00;;;;;25.71;37.94;99127.78;6172295;28;127011;-64
2021/06/07 06:43:50;;;;;;;;;17.20;16.40;;;;;25.63;38.70;99126.63;6166766;28;124566;-64
2021/06/07 06:46:56;;;;;;;;;15.00;15.00;;;;;25.75;38.02;99124.09;6170981;28;124816;-63
2021/06/07 06:50:02;;;;;;;;;15.20;15.20;;;;;25.84;37.59;99130.50;6148345;28;122870;-64
2021/06/07 06:53:06;;;;;;;;;16.80;15.80;;;;;25.93;38.56;99130.53;6170000;28;126240;-64
2021/06/07 06:56:09;;;;;;;;;16.00;15.20;;;;;26.03;38.25;99121.97;6160707;28;125979;-64
2021/06/07 06:59:12;;;;;;;;;16.20;15.20;;;;;26.23;38.11;99129.75;6165819;28;124870;-64
2021/06/07 07:02:16;;;;;;;;;18.50;17.75;;;;;26.41;37.71;99116.78;6165370;28;126362;-63
2021/06/07 07:05:19;;;;;;;;;16.00;14.60;;;;;26.56;37.06;99124.66;6161905;28;98098;-62
2021/06/07 07:08:22;;;;;;;;;15.00;14.00;;;;;26.73;36.21;99132.97;6168186;28;126285;-61
2021/06/07 07:11:24;;;;;;;;;13.00;12.00;;;;;27.05;37.07;99139.25;6173220;28;124944;-65
2021/06/07 07:15:23;;;;;;;;;17.40;15.00;;;;;27.21;35.96;99134.91;6168647;28;125001;-63
2021/06/07 07:18:44;;;;;;;;;16.00;14.60;;;;;27.56;36.35;99144.03;6149358;28;126805;-63
2021/06/07 07:22:43;;;;;;;;;16.40;15.40;;;;;27.80;34.43;99143.50;6152527;28;97408;-62
2021/06/07 07:25:47;;;;;;;;;16.25;15.25;;;;;27.82;35.20;99136.47;6143151;28;125812;-62
2021/06/07 07:28:50;;;;;;;;;14.00;14.00;;;;;27.78;35.48;99134.69;6138911;28;124777;-62
2021/06/07 07:31:53;;;;;;;;;13.80;13.00;;;;;27.92;34.77;99140.88;6151292;28;124137;-62
2021/06/07 07:34:57;;;;;;;;;15.20;14.80;;;;;28.11;34.00;99143.25;6137017;28;124917;-62
2021/06/07 07:38:00;;;;;;;;;17.33;15.33;;;;;28.34;34.02;99139.16;6137356;28;124912;-62
2021/06/07 07:41:03;;;;;;;;;14.00;13.00;;;;;28.49;33.84;99141.38;6150271;28;125966;-61
2021/06/07 07:44:06;;;;;;;;;11.40;10.40;;;;;28.72;33.48;99137.19;6159813;28;127667;-62
2021/06/07 07:47:18;;;;;;;;;15.60;14.40;;;;;28.97;33.68;99145.69;6143761;28;126686;-61
2021/06/07 07:50:22;;;;;;;;;12.00;11.00;;;;;29.39;32.71;99149.31;6143670;28;126387;-61
2021/06/07 07:53:28;;;;;;;;;13.00;12.00;;;;;29.63;30.49;99141.09;6149732;28;126251;-62
2021/06/07 07:56:31;;;;;;;;;11.80;11.00;;;;;29.95;31.01;99150.63;6141537;28;125277;-61
2021/06/07 07:59:34;;;;;;;;;13.00;12.00;;;;;30.19;30.87;99153.47;6146555;28;126324;-61
2021/06/07 08:02:37;;;;;;;;;8.00;8.00;;;;;30.45;28.39;99148.38;6145975;28;125100;-61
2021/06/07 08:05:42;;;;;;;;;10.00;9.40;;;;;30.72;28.25;99152.47;6140074;28;126849;-62
2021/06/07 08:08:45;;;;;;;;;10.00;10.00;;;;;30.98;26.82;99146.56;6144757;28;125944;-62
2021/06/07 08:11:48;;;;;;;;;9.00;9.00;;;;;31.17;26.90;99137.59;6141714;28;126704;-62
2021/06/07 08:14:50;;;;;;;;;9.00;8.00;;;;;31.44;25.01;99150.75;6154212;28;127289;-62
2021/06/07 08:17:53;;;;;;;;;9.00;9.00;;;;;31.68;24.83;99141.50;6150013;28;127019;-62
2021/06/07 08:20:57;;;;;;;;;7.60;7.60;;;;;31.89;23.79;99135.72;6141128;28;127035;-63
2021/06/07 08:24:01;;;;;;;;;9.20;8.00;;;;;32.03;24.09;99138.88;6147522;28;126823;-62
2021/06/07 08:27:05;;;;;;;;;8.00;8.00;;;;;32.27;23.88;99149.09;6156340;28;126709;-64
2021/06/07 08:30:09;;;;;;;;;8.00;8.00;;;;;32.38;22.15;99139.03;6137473;28;124605;-63
2021/06/07 08:33:13;;;;;;;;;8.00;8.00;;;;;32.42;22.46;99135.16;6148162;28;126009;-62
2021/06/07 08:36:17;;;;;;;;;10.00;9.75;;;;;32.63;24.52;99132.09;6140813;28;124974;-62
2021/06/07 08:39:21;;;;;;;;;8.00;8.00;;;;;32.78;23.21;99136.06;6141388;28;126121;-63
2021/06/07 08:42:24;;;;;;;;;9.25;8.00;;;;;32.80;21.83;99125.34;6150513;28;124204;-62
2021/06/07 08:45:27;;;;;;;;;7.80;7.80;;;;;32.73;22.67;99131.56;6147416;28;124856;-62
2021/06/07 08:48:30;;;;;;;;;10.20;8.20;;;;;32.62;23.10;99124.88;6148502;28;125577;-62
2021/06/07 08:51:34;;;;;;;;;8.80;8.00;;;;;32.75;23.30;99133.97;6142171;28;126294;-62
2021/06/07 08:54:37;;;;;;;;;10.00;9.00;;;;;32.75;24.06;99123.63;6147920;28;125187;-61
2021/06/07 08:57:41;;;;;;;;;8.00;8.00;;;;;32.83;22.65;99131.03;6154789;28;126448;-62
2021/06/07 09:00:44;;;;;;;;;9.40;8.00;;;;;33.05;22.84;99123.91;6147525;28;126124;-63
2021/06/07 09:03:47;;;;;;;;;8.00;8.00;;;;;32.79;19.66;99130.13;6155018;28;126584;-62
2021/06/07 09:06:51;;;;;;;;;5.00;5.00;;;;;32.63;17.71;99129.31;6146594;28;126193;-62
2021/06/07 09:10:06;;;;;;;;;5.00;5.00;;;;;32.63;17.40;99123.72;6139459;28;124778;-62
2021/06/07 09:13:11;;;;;;;;;6.00;6.00;;;;;32.70;17.46;99126.69;6154270;28;125937;-62
2021/06/07 09:16:14;;;;;;;;;5.60;5.60;;;;;32.73;18.81;99133.56;6151815;28;126594;-63
2021/06/07 09:19:24;;;;;;;;;5.25;5.00;;;;;33.06;18.60;99125.53;6141181;28;125996;-62
2021/06/07 09:22:29;;;;;;;;;6.00;6.00;;;;;33.27;19.30;99126.06;6141516;28;124638;-65
2021/06/07 09:25:34;;;;;;;;;5.00;5.00;;;;;33.59;17.43;99123.91;6150880;28;126043;-61
2021/06/07 09:28:39;;;;;;;;;5.00;5.00;;;;;33.71;17.11;99118.22;6138630;28;124861;-61
2021/06/07 09:31:44;;;;;;;;;6.00;6.00;;;;;33.91;18.37;99127.38;6152041;28;126124;-62
2021/06/07 09:34:46;;;;;;;;;7.40;6.20;;;;;34.12;19.42;99129.75;6140583;28;126568;-62
2021/06/07 09:38:05;;;;;;;;;4.00;4.00;;;;;34.14;16.49;99102.22;6138877;28;125202;-62
2021/06/07 09:41:07;;;;;;;;;5.75;5.00;;;;;34.31;17.29;99118.50;6153635;28;124868;-63
2021/06/07 09:44:19;;;;;;;;;5.00;5.00;;;;;34.39;15.40;99116.66;6142500;28;126288;-62
2021/06/07 09:47:23;;;;;;;;;4.00;4.00;;;;;34.46;17.19;99119.56;6154359;28;125832;-62
2021/06/07 09:50:26;;;;;;;;;4.00;4.00;;;;;34.56;15.96;99111.34;6138632;28;126022;-63
2021/06/07 09:53:48;;;;;;;;;4.00;4.00;;;;;34.66;16.90;99109.88;6149613;28;126991;-63
2021/06/07 09:56:53;;;;;;;;;5.00;4.60;;;;;34.72;17.64;99103.63;6144328;28;125967;-62
2021/06/07 09:59:56;;;;;;;;;5.00;5.00;;;;;34.83;17.50;99102.97;6136297;28;126049;-66
2021/06/07 10:03:13;;;;;;;;;4.00;4.00;;;;;34.88;16.97;99109.06;6178445;28;125106;-61
2021/06/07 10:06:22;;;;;;;;;6.00;6.00;;;;;34.98;16.31;99107.59;6152010;28;126081;-61
2021/06/07 10:09:26;;;;;;;;;6.00;5.00;;;;;34.98;15.75;99105.63;6141788;28;126029;-61
2021/06/07 10:12:29;;;;;;;;;5.00;5.00;;;;;35.10;17.31;99110.16;6145938;28;126411;-59
2021/06/07 10:15:35;;;;;;;;;7.00;5.00;;;;;35.17;17.40;99102.72;6144150;28;126109;-60
2021/06/07 10:18:38;;;;;;;;;5.00;5.00;;;;;35.20;16.54;99099.13;6135590;28;127085;-60
2021/06/07 10:21:41;;;;;;;;;6.00;5.00;;;;;35.17;16.72;99102.72;6147656;28;125019;-60
2021/06/07 10:24:46;;;;;;;;;5.00;5.00;;;;;35.25;16.53;99092.38;6143432;28;125139;-60
2021/06/07 10:27:48;;;;;;;;;5.00;5.00;;;;;35.37;15.77;99094.16;6144411;28;125054;-60
2021/06/07 10:30:56;;;;;;;;;5.00;5.00;;;;;35.32;17.07;99094.47;6141129;28;125844;-62
2021/06/07 10:34:01;;;;;;;;;4.20;4.20;;;;;35.40;17.30;99098.97;6143905;28;125039;-62
2021/06/07 10:37:04;;;;;;;;;5.40;5.40;;;;;35.37;16.51;99096.94;6147066;28;124375;-61
2021/06/07 10:40:24;;;;;;;;;6.00;5.75;;;;;35.24;16.62;99099.16;6139992;28;124813;-62
2021/06/07 10:43:47;;;;;;;;;6.00;6.00;;;;;35.19;15.71;99094.72;6138564;28;126491;-62
2021/06/07 10:47:05;;;;;;;;;6.00;5.25;;;;;35.17;16.68;99091.50;6127353;28;126358;-62
2021/06/07 10:50:09;;;;;;;;;5.00;5.00;;;;;35.31;17.04;99084.44;6133744;28;124806;-61
2021/06/07 10:53:22;;;;;;;;;5.00;4.50;;;;;35.32;16.47;99092.47;6139283;28;124732;-63
2021/06/07 10:56:28;;;;;;;;;6.75;5.00;;;;;35.30;16.46;99068.81;6138754;28;124957;-62
2021/06/07 10:59:46;;;;;;;;;5.00;5.00;;;;;35.42;16.86;99083.41;6140303;28;124786;-63
2021/06/07 11:02:51;;;;;;;;;6.00;6.00;;;;;35.34;17.52;99086.47;6148744;28;124567;-62
2021/06/07 11:05:56;;;;;;;;;6.00;5.40;;;;;35.40;17.31;99085.78;6147482;28;124351;-62
2021/06/07 11:09:05;;;;;;;;;5.00;5.00;;;;;35.04;17.28;99062.03;6144412;28;127342;-62
2021/06/07 11:12:12;;;;;;;;;6.00;6.00;;;;;35.11;17.37;99081.78;6141957;28;124367;-61
2021/06/07 11:15:19;;;;;;;;;7.00;6.00;;;;;35.08;17.24;99078.94;6145995;28;126760;-63
2021/06/07 11:18:30;;;;;;;;;5.25;5.25;;;;;35.15;17.17;99074.22;6134958;28;123942;-62
2021/06/07 11:21:34;;;;;;;;;7.00;7.00;;;;;35.34;18.40;99069.66;6143929;28;126974;-61
2021/06/07 11:24:38;;;;;;;;;7.00;7.00;;;;;35.12;17.90;99071.38;6143001;28;126447;-61
2021/06/07 11:27:54;;;;;;;;;7.40;7.40;;;;;34.87;18.46;99078.63;6145834;28;126070;-62
2021/06/07 11:30:57;;;;;;;;;8.00;8.00;;;;;34.94;18.57;99064.72;6136195;28;126078;-62
2021/06/07 11:34:01;;;;;;;;;6.00;6.00;;;;;34.85;17.77;99075.38;6134591;28;123778;-61
2021/06/07 11:37:10;;;;;;;;;8.40;8.00;;;;;34.89;18.30;99074.28;6153891;28;127010;-63
2021/06/07 11:40:14;;;;;;;;;8.00;7.00;;;;;34.92;18.86;99059.50;6141391;28;125409;-62
2021/06/07 11:43:53;;;;;;;;;7.00;7.00;;;;;35.00;17.91;99052.78;6144993;28;124977;-62
2021/06/07 11:46:57;;;;;;;;;8.00;7.60;;;;;34.95;18.13;99053.13;6144575;28;124798;-64
2021/06/07 11:50:13;;;;;;;;;8.40;7.40;;;;;34.66;18.43;99062.28;6140989;28;126020;-62
2021/06/07 11:53:17;;;;;;;;;6.00;6.00;;;;;34.72;16.51;99053.22;6138659;28;125304;-62
2021/06/07 11:56:22;;;;;;;;;5.80;5.20;;;;;34.84;16.41;99048.59;6151582;28;124823;-63
2021/06/07 11:59:28;;;;;;;;;13.00;11.40;;;;;34.92;16.99;99047.47;6129797;28;124015;-64
2021/06/07 12:02:31;;;;;;;;;6.60;6.00;;;;;35.02;18.19;99041.22;6146025;28;126137;-62
2021/06/07 12:05:34;;;;;;;;;8.20;7.80;;;;;35.05;18.38;99018.03;6140909;28;127269;-62
2021/06/07 12:08:37;;;;;;;;;9.00;8.00;;;;;35.08;16.82;99034.09;6153445;28;126228;-64
2021/06/07 12:11:44;;;;;;;;;6.50;6.50;;;;;35.12;17.18;99041.34;6151422;28;124674;-63
2021/06/07 12:14:51;;;;;;;;;5.00;5.00;;;;;35.17;16.63;99041.03;6138393;28;124934;-62
2021/06/07 12:17:54;;;;;;;;;5.60;5.60;;;;;35.15;17.15;99040.59;6137377;28;125840;-64
2021/06/07 12:21:00;;;;;;;;;6.00;5.00;;;;;35.15;16.85;99037.78;6138321;28;125831;-63
2021/06/07 12:24:07;;;;;;;;;6.00;6.00;;;;;35.23;16.99;99023.91;6154222;28;124787;-62
2021/06/07 12:30:33;;;;;;;;;6.00;5.80;;;;;35.44;17.80;99013.72;6140352;28;125899;-63
2021/06/07 12:33:41;;;;;;;;;7.00;7.00;;;;;35.50;18.73;99034.63;6144927;28;124915;-62
2021/06/07 12:36:44;;;;;;;;;7.00;7.00;;;;;35.57;17.39;99031.91;6156931;28;125869;-62
2021/06/07 12:39:47;;;;;;;;;5.60;5.60;;;;;35.41;16.71;99036.91;6140997;28;126457;-62
2021/06/07 12:42:53;;;;;;;;;6.00;6.00;;;;;35.55;16.75;99033.47;6158729;28;126159;-64
2021/06/07 12:46:00;;;;;;;;;5.00;5.00;;;;;35.56;15.79;99035.88;6154387;28;124591;-63
2021/06/07 12:49:03;;;;;;;;;5.00;5.00;;;;;35.46;15.46;99027.34;6139191;28;124803;-64
2021/06/07 12:52:06;;;;;;;;;5.00;5.00;;;;;35.50;16.56;99031.81;6147254;28;126197;-61
2021/06/07 12:55:10;;;;;;;;;5.40;5.00;;;;;35.54;17.53;99034.66;6139798;28;128010;-61
2021/06/07 12:58:15;;;;;;;;;5.00;5.00;;;;;35.43;17.68;99028.13;6134607;28;125073;-62
2021/06/07 13:01:34;;;;;;;;;6.00;6.00;;;;;35.05;17.62;99018.84;6140378;28;126055;-62
2021/06/07 13:04:39;;;;;;;;;6.25;6.00;;;;;35.08;18.44;99020.09;6136491;28;126222;-60
2021/06/07 13:07:41;;;;;;;;;6.40;6.00;;;;;35.03;18.00;99010.03;6134496;28;123794;-61
2021/06/07 13:10:47;;;;;;;;;8.00;7.50;;;;;34.96;18.25;99015.53;6133877;28;125225;-61
2021/06/07 13:13:52;;;;;;;;;5.00;5.00;;;;;34.79;17.07;99013.31;6140805;28;125958;-62
2021/06/07 13:17:12;;;;;;;;;5.75;5.00;;;;;34.74;17.15;98999.63;6141486;28;125957;-60
2021/06/07 13:20:15;;;;;;;;;6.00;5.00;;;;;34.80;16.44;99005.72;6135414;28;125642;-64
2021/06/07 13:23:35;;;;;;;;;6.00;5.00;;;;;34.81;16.86;99013.72;6146433;28;125689;-60
2021/06/07 13:26:49;;;;;;;;;5.00;4.00;;;;;34.59;17.39;98993.00;6141823;28;126206;-61
2021/06/07 13:30:05;;;;;;;;;5.00;5.00;;;;;34.71;17.16;99001.19;6133223;28;125762;-60
2021/06/07 13:33:27;;;;;;;;;5.00;4.00;;;;;34.75;17.51;98998.41;6141488;28;126519;-60
2021/06/07 13:36:29;;;;;;;;;5.00;5.00;;;;;34.77;16.88;98998.88;6144967;28;125731;-60
2021/06/07 13:39:32;;;;;;;;;6.00;5.60;;;;;34.81;16.74;98996.09;6136845;28;125168;-60
2021/06/07 13:42:43;;;;;;;;;5.00;5.00;;;;;34.85;17.61;98991.34;6150300;28;126733;-61
2021/06/07 13:45:46;;;;;;;;;4.20;4.00;;;;;34.83;16.27;98988.94;6143271;28;124758;-61
2021/06/07 13:48:50;;;;;;;;;5.00;5.00;;;;;34.82;16.64;98990.13;6142273;28;126673;-61
2021/06/07 13:51:53;;;;;;;;;5.40;5.40;;;;;34.84;16.63;98987.75;6138375;28;124353;-62
2021/06/07 13:54:56;;;;;;;;;4.00;4.00;;;;;34.71;15.42;98975.97;6136117;28;126623;-62
2021/06/07 13:58:02;;;;;;;;;5.00;4.00;;;;;34.67;16.49;98975.13;6139702;28;124534;-62
2021/06/07 14:01:06;;;;;;;;;5.00;4.00;;;;;34.68;16.80;98968.34;6154609;28;124767;-62
2021/06/07 14:04:10;;;;;;;;;5.00;5.00;;;;;34.39;16.44;98971.91;6159902;28;125979;-62
2021/06/07 14:07:13;;;;;;;;;6.00;6.00;;;;;34.28;16.62;98979.34;6158737;28;125750;-62
2021/06/07 14:10:17;;;;;;;;;6.50;6.50;;;;;34.10;16.29;98978.22;6151648;28;126629;-62
2021/06/07 14:13:22;;;;;;;;;5.25;5.25;;;;;34.06;16.98;98946.59;6152181;28;126170;-62
2021/06/07 14:16:27;;;;;;;;;5.00;5.00;;;;;33.99;16.78;98932.47;6136871;28;127431;-61